createdAt,value
2018-10-19T00:00:43.172Z,23.03
2018-10-19T00:03:15.830Z,23.70
2018-10-19T00:05:50.145Z,23.40
2018-10-19T00:08:24.397Z,24.87
2018-10-19T00:10:57.102Z,24.60
2018-10-19T00:13:33.471Z,23.60
2018-10-19T00:16:06.170Z,24.47
2018-10-19T00:18:40.120Z,23.10
2018-10-19T00:21:14.101Z,26.67
2018-10-19T00:23:46.434Z,24.70
2018-10-19T00:26:19.841Z,22.90
2018-10-19T00:28:52.637Z,23.27
2018-10-19T00:31:26.787Z,24.53
2018-10-19T00:33:59.678Z,24.20
2018-10-19T00:36:32.702Z,23.37
2018-10-19T00:39:09.231Z,28.30
2018-10-19T00:41:42.254Z,27.30
2018-10-19T00:44:15.061Z,27.83
2018-10-19T00:46:47.812Z,25.17
2018-10-19T00:49:20.369Z,27.53
2018-10-19T00:51:54.948Z,23.70
2018-10-19T00:54:27.982Z,25.63
2018-10-19T00:57:01.009Z,24.57
2018-10-19T00:59:35.352Z,25.67
2018-10-19T01:02:09.293Z,24.13
2018-10-19T01:04:42.877Z,24.27
2018-10-19T01:07:23.181Z,24.73
2018-10-19T01:09:59.424Z,26.97
2018-10-19T01:12:33.511Z,23.30
2018-10-19T01:15:14.397Z,23.90
2018-10-19T01:17:50.059Z,23.57
2018-10-19T01:20:24.314Z,23.57
2018-10-19T01:23:00.322Z,23.67
2018-10-19T01:25:39.965Z,24.50
2018-10-19T01:28:15.123Z,24.03
2018-10-19T01:30:48.337Z,22.27
2018-10-19T01:33:21.045Z,23.83
2018-10-19T01:35:57.438Z,23.60
2018-10-19T01:38:30.704Z,24.02
2018-10-19T01:41:04.921Z,22.80
2018-10-19T01:43:37.484Z,21.17
2018-10-19T01:46:10.357Z,22.00
2018-10-19T01:48:43.087Z,21.97
2018-10-19T01:51:16.495Z,20.87
2018-10-19T01:53:49.896Z,19.60
2018-10-19T01:56:24.834Z,21.43
2018-10-19T01:58:58.222Z,21.53
2018-10-19T02:01:32.041Z,20.33
2018-10-19T02:04:04.830Z,22.47
2018-10-19T02:06:38.203Z,20.30
2018-10-19T02:09:11.859Z,20.50
2018-10-19T02:11:44.869Z,20.03
2018-10-19T02:14:18.858Z,20.20
2018-10-19T02:16:52.964Z,18.87
2018-10-19T02:19:26.524Z,20.20
2018-10-19T02:21:59.097Z,18.87
2018-10-19T02:24:34.246Z,19.13
2018-10-19T02:27:07.571Z,19.67
2018-10-19T02:29:41.546Z,18.73
2018-10-19T02:32:18.082Z,18.67
2018-10-19T02:34:51.381Z,17.97
2018-10-19T02:37:25.414Z,18.37
2018-10-19T02:39:58.514Z,20.37
2018-10-19T02:42:32.372Z,18.40
2018-10-19T02:45:07.580Z,17.67
2018-10-19T02:47:41.457Z,17.87
2018-10-19T02:50:14.018Z,18.43
2018-10-19T02:52:46.593Z,19.03
2018-10-19T02:55:20.377Z,20.00
2018-10-19T02:57:52.995Z,18.97
2018-10-19T03:00:25.585Z,18.00
2018-10-19T03:03:01.677Z,21.37
2018-10-19T03:05:34.217Z,19.80
2018-10-19T03:08:07.597Z,20.23
2018-10-19T03:10:42.863Z,19.47
2018-10-19T03:13:16.789Z,20.33
2018-10-19T03:15:49.392Z,19.40
2018-10-19T03:18:22.221Z,21.37
2018-10-19T03:20:56.309Z,23.17
2018-10-19T03:23:29.618Z,21.40
2018-10-19T03:26:08.143Z,22.07
2018-10-19T03:28:41.493Z,21.30
2018-10-19T03:31:16.189Z,20.93
2018-10-19T03:33:49.575Z,22.57
2018-10-19T03:36:23.398Z,24.23
2018-10-19T03:38:56.888Z,25.37
2018-10-19T03:41:29.989Z,25.13
2018-10-19T03:44:03.594Z,26.33
2018-10-19T03:46:36.330Z,28.30
2018-10-19T03:49:11.642Z,28.80
2018-10-19T03:51:45.525Z,27.57
2018-10-19T03:54:19.785Z,28.60
2018-10-19T03:56:53.793Z,28.97
2018-10-19T03:59:29.461Z,28.57
2018-10-19T04:02:03.956Z,31.70
2018-10-19T04:04:37.750Z,31.00
2018-10-19T04:07:10.460Z,28.17
2018-10-19T04:09:43.056Z,32.07
2018-10-19T04:12:20.181Z,30.60
2018-10-19T04:14:54.053Z,30.47
2018-10-19T04:17:26.740Z,30.77
2018-10-19T04:20:00.510Z,30.90
2018-10-19T04:22:33.158Z,32.50
2018-10-19T04:25:08.542Z,30.17
2018-10-19T04:27:43.385Z,29.93
2018-10-19T04:30:17.468Z,30.07
2018-10-19T04:32:51.288Z,31.17
2018-10-19T04:35:27.357Z,29.30
2018-10-19T04:38:01.049Z,29.23
2018-10-19T04:40:33.673Z,29.10
2018-10-19T04:43:06.970Z,30.17
2018-10-19T04:45:39.626Z,28.07
2018-10-19T04:48:12.179Z,29.00
2018-10-19T04:50:44.970Z,27.30
2018-10-19T04:53:18.481Z,28.00
2018-10-19T04:55:50.953Z,28.87
2018-10-19T04:58:25.816Z,28.80
2018-10-19T05:00:59.157Z,28.87
2018-10-19T05:03:32.033Z,29.37
2018-10-19T05:06:07.122Z,31.43
2018-10-19T05:08:40.012Z,28.60
2018-10-19T05:11:13.625Z,31.65
2018-10-19T05:13:46.130Z,31.83
2018-10-19T05:16:19.609Z,28.87
2018-10-19T05:18:53.501Z,26.40
2018-10-19T05:21:26.830Z,27.03
2018-10-19T05:23:59.489Z,26.23
2018-10-19T05:26:32.279Z,27.47
2018-10-19T05:29:08.125Z,26.03
2018-10-19T05:31:42.641Z,27.07
2018-10-19T05:34:15.966Z,29.30
2018-10-19T05:36:50.662Z,28.50
2018-10-19T05:39:25.166Z,25.60
2018-10-19T05:41:57.596Z,30.85
2018-10-19T05:44:32.361Z,26.93
2018-10-19T05:47:07.489Z,27.57
2018-10-19T05:49:41.000Z,27.77
2018-10-19T05:52:14.143Z,27.43
2018-10-19T05:54:47.066Z,27.20
2018-10-19T05:57:19.673Z,27.80
2018-10-19T05:59:54.193Z,26.93
2018-10-19T06:02:26.906Z,25.40
2018-10-19T06:04:59.524Z,26.17
2018-10-19T06:07:32.129Z,28.30
2018-10-19T06:10:05.846Z,27.03
2018-10-19T06:12:39.254Z,24.70
2018-10-19T06:15:14.061Z,25.93
2018-10-19T06:18:57.063Z,26.70
2018-10-19T06:21:32.388Z,26.13
2018-10-19T06:24:08.444Z,24.77
2018-10-19T06:26:45.080Z,23.53
2018-10-19T06:29:22.302Z,23.67
2018-10-19T06:31:55.570Z,25.37
2018-10-19T06:34:28.919Z,23.60
2018-10-19T06:37:03.389Z,25.67
2018-10-19T06:39:36.147Z,26.60
2018-10-19T06:42:09.496Z,24.60
2018-10-19T06:44:48.773Z,24.17
2018-10-19T06:47:23.820Z,23.73
2018-10-19T06:49:57.888Z,26.95
2018-10-19T06:52:31.686Z,26.13
2018-10-19T06:55:07.230Z,25.23
2018-10-19T06:57:41.673Z,27.42
2018-10-19T07:00:17.422Z,26.83
2018-10-19T07:02:49.997Z,24.57
2018-10-19T07:05:22.703Z,25.30
2018-10-19T07:07:59.428Z,25.47
2018-10-19T07:10:32.821Z,23.90
2018-10-19T07:13:06.465Z,23.47
2018-10-19T07:15:40.448Z,25.37
2018-10-19T07:18:14.146Z,25.30
2018-10-19T07:20:47.407Z,24.83
2018-10-19T07:23:30.029Z,24.67
2018-10-19T07:26:03.518Z,24.17
2018-10-19T07:28:37.664Z,25.27
2018-10-19T07:31:11.553Z,25.53
2018-10-19T07:33:45.113Z,25.30
2018-10-19T07:36:17.818Z,24.50
2018-10-19T07:41:15.940Z,26.20
2018-10-19T07:43:48.640Z,25.07
2018-10-19T07:46:39.313Z,24.77
2018-10-19T07:49:11.941Z,24.47
2018-10-19T07:51:44.702Z,23.57
2018-10-19T07:54:17.617Z,24.30
2018-10-19T07:56:50.822Z,23.57
2018-10-19T07:59:24.015Z,22.33
2018-10-19T08:01:57.700Z,23.57
2018-10-19T08:04:30.792Z,22.93
2018-10-19T08:07:07.357Z,21.70
2018-10-19T08:09:41.417Z,23.67
2018-10-19T08:12:14.358Z,22.17
2018-10-19T08:14:46.825Z,21.00
2018-10-19T08:17:20.416Z,22.05
2018-10-19T08:19:53.689Z,20.70
2018-10-19T08:22:32.153Z,19.87
2018-10-19T08:25:07.896Z,19.33
2018-10-19T08:27:43.366Z,19.13
2018-10-19T08:30:16.212Z,19.03
2018-10-19T08:32:49.232Z,18.73
2018-10-19T08:35:22.885Z,19.70
2018-10-19T08:38:02.942Z,19.40
2018-10-19T08:40:36.539Z,19.93
2018-10-19T08:43:12.188Z,19.93
2018-10-19T08:45:49.540Z,20.35
2018-10-19T08:48:25.710Z,18.10
2018-10-19T08:50:59.535Z,19.10
2018-10-19T08:56:10.475Z,19.17
2018-10-19T08:58:45.611Z,19.57
2018-10-19T09:01:19.542Z,19.50
2018-10-19T09:03:53.209Z,20.23
2018-10-19T09:06:29.557Z,19.83
2018-10-19T09:09:14.041Z,18.30
2018-10-19T09:11:46.596Z,19.47
2018-10-19T09:15:00.731Z,18.83
2018-10-19T09:17:35.765Z,18.00
2018-10-19T09:20:10.261Z,21.80
2018-10-19T09:22:43.689Z,18.83
2018-10-19T09:25:17.415Z,20.03
2018-10-19T09:27:50.449Z,19.63
2018-10-19T09:30:24.097Z,20.77
2018-10-19T09:32:58.226Z,18.73
2018-10-19T09:35:30.956Z,20.07
2018-10-19T09:38:06.286Z,19.93
2018-10-19T09:40:40.684Z,18.97
2018-10-19T09:43:13.741Z,19.50
2018-10-19T09:45:49.212Z,17.97
2018-10-19T09:48:23.369Z,19.27
2018-10-19T09:50:56.386Z,19.77
2018-10-19T09:53:30.662Z,21.17
2018-10-19T09:56:04.727Z,20.77
2018-10-19T09:58:39.727Z,22.47
2018-10-19T10:01:22.724Z,19.47
2018-10-19T10:04:03.433Z,19.27
2018-10-19T10:06:38.167Z,19.57
2018-10-19T10:09:15.175Z,19.70
2018-10-19T10:11:48.758Z,19.93
2018-10-19T10:14:22.947Z,20.20
2018-10-19T10:16:55.608Z,20.33
2018-10-19T10:19:28.891Z,22.10
2018-10-19T10:22:04.460Z,20.13
2018-10-19T10:24:41.783Z,20.20
2018-10-19T10:27:17.228Z,20.37
2018-10-19T10:29:53.519Z,19.93
2018-10-19T10:32:34.089Z,20.50
2018-10-19T10:35:07.789Z,19.47
2018-10-19T10:37:47.778Z,19.03
2018-10-19T10:40:22.570Z,18.17
2018-10-19T10:42:57.773Z,19.17
2018-10-19T10:45:47.696Z,18.50
2018-10-19T10:48:24.591Z,17.93
2018-10-19T10:51:04.992Z,20.27
2018-10-19T10:53:44.231Z,19.87
2018-10-19T10:56:25.482Z,20.90
2018-10-19T10:59:00.766Z,18.77
2018-10-19T11:01:35.126Z,16.10
2018-10-19T11:04:10.661Z,18.70
2018-10-19T11:06:43.781Z,18.90
2018-10-19T11:09:17.974Z,18.40
2018-10-19T11:11:56.104Z,19.07
2018-10-19T11:14:31.651Z,18.70
2018-10-19T11:17:04.995Z,17.00
2018-10-19T11:19:39.161Z,20.47
2018-10-19T11:22:12.705Z,17.70
2018-10-19T11:24:46.330Z,18.40
2018-10-19T11:27:22.722Z,19.43
2018-10-19T11:30:15.578Z,20.23
2018-10-19T11:32:58.704Z,19.50
2018-10-19T11:35:37.219Z,21.50
2018-10-19T11:38:17.844Z,20.27
2018-10-19T11:41:01.840Z,20.27
2018-10-19T11:43:53.258Z,21.53
2018-10-19T11:46:33.827Z,18.83
2018-10-19T11:49:13.628Z,23.35
2018-10-19T11:51:59.502Z,19.83
2018-10-19T11:54:49.787Z,18.13
2018-10-19T11:57:24.960Z,18.73
2018-10-19T12:00:08.533Z,18.90
2018-10-19T12:02:46.467Z,19.17
2018-10-19T12:05:23.955Z,19.10
2018-10-19T12:07:58.700Z,19.03
2018-10-19T12:10:31.767Z,18.43
2018-10-19T12:13:07.617Z,19.57
2018-10-19T12:15:43.520Z,18.87
2018-10-19T12:18:18.353Z,17.40
2018-10-19T12:20:55.727Z,19.53
2018-10-19T12:23:30.841Z,19.67
2018-10-19T12:26:06.801Z,20.92
2018-10-19T12:28:41.766Z,19.77
2018-10-19T12:31:17.955Z,18.20
2018-10-19T12:33:52.155Z,18.23
2018-10-19T12:36:27.529Z,18.13
2018-10-19T12:39:01.141Z,17.73
2018-10-19T12:41:37.668Z,15.67
2018-10-19T12:44:11.512Z,16.30
2018-10-19T12:47:07.956Z,17.67
2018-10-19T12:49:41.885Z,20.05
2018-10-19T12:52:23.531Z,18.40
2018-10-19T12:54:59.633Z,18.00
2018-10-19T12:57:34.618Z,16.80
2018-10-19T13:00:09.645Z,18.03
2018-10-19T13:02:43.608Z,16.20
2018-10-19T13:05:16.786Z,17.20
2018-10-19T13:07:49.345Z,17.37
2018-10-19T13:10:21.931Z,18.98
2018-10-19T13:12:56.988Z,16.07
2018-10-19T13:15:31.854Z,16.60
2018-10-19T13:18:05.664Z,15.90
2018-10-19T13:20:39.285Z,18.90
2018-10-19T13:23:11.810Z,17.60
2018-10-19T13:25:46.638Z,17.57
2018-10-19T13:28:20.661Z,17.30
2018-10-19T13:30:53.523Z,16.47
2018-10-19T13:33:27.040Z,15.97
2018-10-19T13:36:04.040Z,16.47
2018-10-19T13:38:36.708Z,17.00
2018-10-19T13:41:15.078Z,17.33
2018-10-19T13:43:47.584Z,18.00
2018-10-19T13:46:21.701Z,18.83
2018-10-19T13:48:55.866Z,18.97
2018-10-19T13:51:29.827Z,18.00
2018-10-19T13:54:07.503Z,18.93
2018-10-19T13:56:42.808Z,19.60
2018-10-19T13:59:18.088Z,19.50
2018-10-19T14:01:52.777Z,18.93
2018-10-19T14:04:26.678Z,19.10
2018-10-19T14:07:02.449Z,19.83
2018-10-19T14:09:35.993Z,21.20
2018-10-19T14:12:09.639Z,20.93
2018-10-19T14:14:43.686Z,19.10
2018-10-19T14:17:18.090Z,20.53
2018-10-19T14:19:53.290Z,21.47
2018-10-19T14:22:26.800Z,19.83
2018-10-19T14:24:59.422Z,19.00
2018-10-19T14:27:32.989Z,20.30
2018-10-19T14:30:13.829Z,19.30
2018-10-19T14:32:47.350Z,18.97
2018-10-19T14:35:21.782Z,19.57
2018-10-19T14:37:54.536Z,19.07
2018-10-19T14:40:27.237Z,21.30
2018-10-19T14:43:03.498Z,19.63
2018-10-19T14:45:37.093Z,19.30
2018-10-19T14:48:11.749Z,19.33
2018-10-19T14:50:44.257Z,20.60
2018-10-19T14:53:21.886Z,18.90
2018-10-19T14:55:56.308Z,20.17
2018-10-19T14:58:29.274Z,18.37
2018-10-19T15:01:04.619Z,18.40
2018-10-19T15:03:38.617Z,19.17
2018-10-19T15:06:13.351Z,18.97
2018-10-19T15:08:47.714Z,19.87
2018-10-19T15:11:21.722Z,18.60
2018-10-19T15:13:55.686Z,19.50
2018-10-19T15:16:30.490Z,19.50
2018-10-19T15:19:03.684Z,19.57
2018-10-19T15:21:41.486Z,19.50
2018-10-19T15:24:14.308Z,19.40
2018-10-19T15:26:46.734Z,21.75
2018-10-19T15:29:20.756Z,20.47
2018-10-19T15:31:58.393Z,19.50
2018-10-19T15:34:34.694Z,19.90
2018-10-19T15:37:12.654Z,19.73
2018-10-19T15:39:46.183Z,21.12
2018-10-19T15:42:20.296Z,18.93
2018-10-19T15:44:55.051Z,18.60
2018-10-19T15:47:33.459Z,18.27
2018-10-19T15:50:10.913Z,21.35
2018-10-19T15:52:43.752Z,18.93
2018-10-19T15:55:17.367Z,18.87
2018-10-19T15:57:50.963Z,21.00
2018-10-19T16:00:23.791Z,20.48
2018-10-19T16:02:58.101Z,17.83
2018-10-19T16:05:30.706Z,18.40
2018-10-19T16:08:03.278Z,18.83
2018-10-19T16:10:36.928Z,18.93
2018-10-19T16:13:09.984Z,19.30
2018-10-19T16:15:44.212Z,18.50
2018-10-19T16:18:20.541Z,19.10
2018-10-19T16:20:54.395Z,19.30
2018-10-19T16:23:27.659Z,19.20
2018-10-19T16:26:00.341Z,20.07
2018-10-19T16:28:34.733Z,20.90
2018-10-19T16:31:08.275Z,20.47
2018-10-19T16:33:41.922Z,20.37
2018-10-19T16:36:15.540Z,19.37
2018-10-19T16:38:48.330Z,20.37
2018-10-19T16:41:23.655Z,20.67
2018-10-19T16:44:05.353Z,20.83
2018-10-19T16:46:42.069Z,20.20
2018-10-19T16:49:14.613Z,21.00
2018-10-19T16:51:47.498Z,20.80
2018-10-19T16:54:21.586Z,19.00
2018-10-19T16:56:55.050Z,20.03
2018-10-19T16:59:31.789Z,21.43
2018-10-19T17:02:06.985Z,21.73
2018-10-19T17:04:39.691Z,22.23
2018-10-19T17:07:17.487Z,21.73
2018-10-19T17:09:53.844Z,22.13
2018-10-19T17:12:28.813Z,23.93
2018-10-19T17:15:12.659Z,21.43
2018-10-19T17:17:46.596Z,23.13
2018-10-19T17:20:19.909Z,21.57
2018-10-19T17:22:56.931Z,21.83
2018-10-19T17:25:31.535Z,21.57
2018-10-19T17:28:07.165Z,23.25
2018-10-19T17:30:42.826Z,22.93
2018-10-19T17:33:15.443Z,23.43
2018-10-19T17:35:48.130Z,20.43
2018-10-19T17:38:22.439Z,22.07
2018-10-19T17:40:58.514Z,21.30
2018-10-19T17:43:33.444Z,23.63
2018-10-19T17:46:08.703Z,24.10
2018-10-19T17:48:45.747Z,24.13
2018-10-19T17:51:20.881Z,25.03
2018-10-19T17:53:56.423Z,24.33
2018-10-19T17:56:29.162Z,24.80
2018-10-19T17:59:03.980Z,24.13
2018-10-19T18:01:39.326Z,24.33
2018-10-19T18:04:33.432Z,27.10
2018-10-19T18:07:16.727Z,26.67
2018-10-19T18:09:52.794Z,24.77
2018-10-19T18:12:25.818Z,24.87
2018-10-19T18:15:02.817Z,25.23
2018-10-19T18:17:43.823Z,27.60
2018-10-19T18:20:18.013Z,24.80
2018-10-19T18:22:54.338Z,26.73
2018-10-19T18:25:32.434Z,25.47
2018-10-19T18:28:07.135Z,27.83
2018-10-19T18:30:41.891Z,27.37
2018-10-19T18:33:15.470Z,27.57
2018-10-19T18:35:56.434Z,27.20
2018-10-19T18:38:32.095Z,26.20
2018-10-19T18:41:06.734Z,30.20
2018-10-19T18:43:39.765Z,30.37
2018-10-19T18:46:13.473Z,32.08
2018-10-19T18:48:47.412Z,30.95
2018-10-19T18:51:20.447Z,25.47
2018-10-19T18:53:56.057Z,28.52
2018-10-19T18:56:31.557Z,30.08
2018-10-19T18:59:06.700Z,31.70
2018-10-19T19:01:43.623Z,28.77
2018-10-19T19:04:17.786Z,26.63
2018-10-19T19:06:52.417Z,27.27
2018-10-19T19:09:25.926Z,27.70
2018-10-19T19:11:59.893Z,28.60
2018-10-19T19:14:32.588Z,28.20
2018-10-19T19:17:07.500Z,24.27
2018-10-19T19:20:05.988Z,26.10
2018-10-19T19:22:57.099Z,22.23
2018-10-19T19:25:38.898Z,29.43
2018-10-19T19:28:15.449Z,26.90
2018-10-19T19:30:48.862Z,26.80
2018-10-19T19:33:28.340Z,25.90
2018-10-19T19:36:02.370Z,28.50
2018-10-19T19:38:36.079Z,29.90
2018-10-19T19:41:17.017Z,27.23
2018-10-19T19:43:50.614Z,27.87
2018-10-19T19:46:24.451Z,27.17
2018-10-19T19:49:10.707Z,27.07
2018-10-19T19:51:46.523Z,26.07
2018-10-19T19:54:21.469Z,25.40
2018-10-19T19:56:55.310Z,23.73
2018-10-19T19:59:28.696Z,21.27
2018-10-19T20:02:02.178Z,19.33
2018-10-19T20:04:38.011Z,19.47
2018-10-19T20:07:13.360Z,19.93
2018-10-19T20:09:47.253Z,18.13
2018-10-19T20:12:21.590Z,18.73
2018-10-19T20:14:55.529Z,17.90
2018-10-19T20:17:38.234Z,18.73
2018-10-19T20:20:13.926Z,17.13
2018-10-19T20:22:52.785Z,17.83
2018-10-19T20:25:29.651Z,18.03
2018-10-19T20:28:04.955Z,17.55
2018-10-19T20:30:39.940Z,17.57
2018-10-19T20:33:15.314Z,16.03
2018-10-19T20:35:50.663Z,16.77
2018-10-19T20:38:27.328Z,18.77
2018-10-19T20:41:03.396Z,16.27
2018-10-19T20:43:37.597Z,16.77
2018-10-19T20:46:20.833Z,17.30
2018-10-19T20:48:55.849Z,19.30
2018-10-19T20:51:31.811Z,18.70
2018-10-19T20:54:06.982Z,20.37
2018-10-19T20:56:41.435Z,18.83
2018-10-19T20:59:19.080Z,17.60
2018-10-19T21:01:53.288Z,19.47
2018-10-19T21:04:29.361Z,20.33
2018-10-19T21:07:03.252Z,19.43
2018-10-19T21:09:36.655Z,18.27
2018-10-19T21:12:12.245Z,19.40
2018-10-19T21:14:46.713Z,20.30
2018-10-19T21:17:20.110Z,26.67
2018-10-19T21:19:53.849Z,23.13
2018-10-19T21:22:28.872Z,24.15
2018-10-19T21:25:01.659Z,21.63
2018-10-19T21:27:35.473Z,19.90
2018-10-19T21:30:13.954Z,20.30
2018-10-19T21:32:47.654Z,20.80
2018-10-19T21:35:21.428Z,21.50
2018-10-19T21:37:58.050Z,25.83
2018-10-19T21:40:32.482Z,26.93
2018-10-19T21:43:08.306Z,24.73
2018-10-19T21:45:42.304Z,22.13
2018-10-19T21:48:15.581Z,23.87
2018-10-19T21:50:54.349Z,21.13
2018-10-19T21:53:28.483Z,30.85
2018-10-19T21:56:03.669Z,25.53
2018-10-19T21:58:43.140Z,25.07
2018-10-19T22:01:17.142Z,24.30
2018-10-19T22:03:53.829Z,27.10
2018-10-19T22:06:26.566Z,26.93
2018-10-19T22:09:01.613Z,24.37
2018-10-19T22:11:35.967Z,23.53
2018-10-19T22:14:12.750Z,24.03
2018-10-19T22:16:54.470Z,22.67
2018-10-19T22:19:27.533Z,25.53
2018-10-19T22:22:00.947Z,24.23
2018-10-19T22:24:38.606Z,21.93
2018-10-19T22:27:20.533Z,22.03
2018-10-19T22:29:54.752Z,23.57
2018-10-19T22:32:28.589Z,22.67
2018-10-19T22:35:03.113Z,27.90
2018-10-19T22:37:37.775Z,24.40
2018-10-19T22:40:11.191Z,27.37
2018-10-19T22:42:45.801Z,25.37
2018-10-19T22:45:18.505Z,23.53
2018-10-19T22:47:51.398Z,22.63
2018-10-19T22:50:26.298Z,28.60
2018-10-19T22:52:59.034Z,24.77
2018-10-19T22:55:32.293Z,30.33
2018-10-19T22:58:05.847Z,28.93
2018-10-19T23:00:40.297Z,24.03
2018-10-19T23:03:13.216Z,27.57
2018-10-19T23:05:46.969Z,29.23
2018-10-19T23:08:19.533Z,27.73
2018-10-19T23:10:55.011Z,24.77
2018-10-19T23:13:29.149Z,30.57
2018-10-19T23:16:04.114Z,30.37
2018-10-19T23:18:38.843Z,28.50
2018-10-19T23:21:12.583Z,26.83
2018-10-19T23:23:46.175Z,26.00
2018-10-19T23:26:18.805Z,37.47
2018-10-19T23:28:52.604Z,39.77
2018-10-19T23:31:26.048Z,34.15
2018-10-19T23:33:58.557Z,27.23
2018-10-19T23:36:31.711Z,27.43
2018-10-19T23:39:07.508Z,33.53
2018-10-19T23:41:40.627Z,32.43
2018-10-19T23:44:13.560Z,29.20
2018-10-19T23:46:46.142Z,28.80
2018-10-19T23:49:19.710Z,26.47
2018-10-19T23:51:53.329Z,28.70
2018-10-19T23:54:26.202Z,29.30
2018-10-19T23:56:58.920Z,29.73
2018-10-19T23:59:32.064Z,29.30
